createdAt,value
2023-04-18T00:00:19.628Z,100715.63
2023-04-18T00:02:47.902Z,100718.38
2023-04-18T00:05:18.140Z,100716.94
2023-04-18T00:07:46.032Z,100715.50
2023-04-18T00:10:13.720Z,100713.41
2023-04-18T00:12:41.237Z,100718.97
2023-04-18T00:15:12.230Z,100721.50
2023-04-18T00:17:39.933Z,100718.66
2023-04-18T00:20:10.531Z,100714.16
2023-04-18T00:22:42.251Z,100715.66
2023-04-18T00:25:10.954Z,100710.88
2023-04-18T00:27:39.504Z,100707.47
2023-04-18T00:30:09.666Z,100716.72
2023-04-18T00:32:38.890Z,100709.06
2023-04-18T00:35:07.533Z,100708.31
2023-04-18T00:37:35.051Z,100711.88
2023-04-18T00:40:02.556Z,100711.47
2023-04-18T00:42:30.035Z,100709.00
2023-04-18T00:44:57.500Z,100707.19
2023-04-18T00:47:25.113Z,100700.03
2023-04-18T00:49:54.327Z,100695.56
2023-04-18T00:52:22.332Z,100694.78
2023-04-18T00:54:50.061Z,100700.34
2023-04-18T00:57:17.688Z,100703.91
2023-04-18T00:59:47.173Z,100704.47
2023-04-18T01:02:14.654Z,100707.91
2023-04-18T01:04:43.622Z,100707.84
2023-04-18T01:07:13.001Z,100705.44
2023-04-18T01:09:41.334Z,100701.69
2023-04-18T01:12:08.922Z,100701.59
2023-04-18T01:14:36.433Z,100694.63
2023-04-18T01:17:03.870Z,100702.53
2023-04-18T01:19:31.699Z,100697.25
2023-04-18T01:21:59.152Z,100693.22
2023-04-18T01:24:29.706Z,100685.06
2023-04-18T01:26:57.317Z,100691.88
2023-04-18T01:29:24.829Z,100684.63
2023-04-18T01:31:52.333Z,100680.06
2023-04-18T01:34:19.842Z,100687.88
2023-04-18T01:36:47.632Z,100677.88
2023-04-18T01:39:15.487Z,100684.88
2023-04-18T01:41:44.346Z,100680.25
2023-04-18T01:44:12.102Z,100686.16
2023-04-18T01:46:40.693Z,100689.22
2023-04-18T01:49:09.235Z,100680.50
2023-04-18T01:51:38.706Z,100682.88
2023-04-18T01:54:06.374Z,100687.53
2023-04-18T01:56:33.861Z,100680.75
2023-04-18T01:59:02.704Z,100677.13
2023-04-18T02:01:30.357Z,100688.13
2023-04-18T02:03:57.945Z,100688.47
2023-04-18T02:06:26.055Z,100684.75
2023-04-18T02:08:53.526Z,100679.84
2023-04-18T02:11:21.007Z,100677.53
2023-04-18T02:13:48.646Z,100671.50
2023-04-18T02:16:17.494Z,100678.09
2023-04-18T02:18:45.331Z,100680.63
2023-04-18T02:21:12.781Z,100690.16
2023-04-18T02:23:40.355Z,100681.78
2023-04-18T02:26:07.848Z,100676.88
2023-04-18T02:28:38.768Z,100673.72
2023-04-18T02:31:07.169Z,100671.16
2023-04-18T02:33:35.995Z,100670.28
2023-04-18T02:36:03.502Z,100671.00
2023-04-18T02:38:31.721Z,100678.13
2023-04-18T02:40:59.211Z,100674.38
2023-04-18T02:43:26.658Z,100678.03
2023-04-18T02:45:54.162Z,100677.34
2023-04-18T02:48:21.701Z,100681.84
2023-04-18T02:50:50.577Z,100685.38
2023-04-18T02:53:18.070Z,100679.72
2023-04-18T02:55:45.558Z,100678.81
2023-04-18T02:58:13.061Z,100676.63
2023-04-18T03:00:40.589Z,100682.97
2023-04-18T03:03:08.077Z,100680.00
2023-04-18T03:05:35.589Z,100680.09
2023-04-18T03:08:04.407Z,100675.00
2023-04-18T03:10:32.094Z,100675.19
2023-04-18T03:12:59.558Z,100671.03
2023-04-18T03:15:27.011Z,100676.94
2023-04-18T03:17:54.628Z,100685.50
2023-04-18T03:20:22.377Z,100679.00
2023-04-18T03:22:49.887Z,100676.31
2023-04-18T03:25:18.875Z,100677.34
2023-04-18T03:27:46.375Z,100678.56
2023-04-18T03:30:14.101Z,100679.00
2023-04-18T03:32:41.967Z,100684.28
2023-04-18T03:35:10.991Z,100689.66
2023-04-18T03:37:38.436Z,100684.44
2023-04-18T03:40:06.918Z,100685.84
2023-04-18T03:42:36.205Z,100685.91
2023-04-18T03:45:04.253Z,100688.31
2023-04-18T03:47:32.380Z,100688.09
2023-04-18T03:49:59.889Z,100698.28
2023-04-18T03:52:29.656Z,100694.38
2023-04-18T03:54:57.364Z,100694.09
2023-04-18T03:57:24.822Z,100703.88
2023-04-18T03:59:53.643Z,100696.97
2023-04-18T04:02:21.251Z,100698.66
2023-04-18T04:04:49.023Z,100696.81
2023-04-18T04:07:16.722Z,100700.22
2023-04-18T04:09:44.177Z,100699.22
2023-04-18T04:12:11.664Z,100703.63
2023-04-18T04:14:39.121Z,100705.69
2023-04-18T04:17:08.053Z,100702.56
2023-04-18T04:19:35.602Z,100706.28
2023-04-18T04:22:03.070Z,100701.13
2023-04-18T04:24:30.618Z,100708.47
2023-04-18T04:26:58.805Z,100709.69
2023-04-18T04:29:26.743Z,100706.75
2023-04-18T04:31:54.249Z,100717.66
2023-04-18T04:34:23.184Z,100722.97
2023-04-18T04:36:51.011Z,100726.66
2023-04-18T04:39:18.635Z,100727.28
2023-04-18T04:41:47.073Z,100726.63
2023-04-18T04:44:17.642Z,100738.53
2023-04-18T04:46:45.408Z,100725.63
2023-04-18T04:49:13.071Z,100732.44
2023-04-18T04:51:41.911Z,100728.72
2023-04-18T04:54:09.362Z,100735.09
2023-04-18T04:56:36.877Z,100745.72
2023-04-18T04:59:04.418Z,100734.59
2023-04-18T05:01:31.940Z,100738.53
2023-04-18T05:03:59.511Z,100744.97
2023-04-18T05:06:27.477Z,100740.69
2023-04-18T05:08:57.511Z,100740.13
2023-04-18T05:11:25.093Z,100738.84
2023-04-18T05:13:52.557Z,100738.47
2023-04-18T05:16:20.105Z,100733.16
2023-04-18T05:18:47.813Z,100737.19
2023-04-18T05:21:15.296Z,100740.97
2023-04-18T05:23:42.750Z,100739.72
2023-04-18T05:26:11.594Z,100748.75
2023-04-18T05:28:39.197Z,100742.72
2023-04-18T05:31:06.660Z,100741.03
2023-04-18T05:33:34.216Z,100747.25
2023-04-18T05:36:01.685Z,100751.72
2023-04-18T05:38:29.129Z,100757.22
2023-04-18T05:40:57.023Z,100753.78
2023-04-18T05:43:25.794Z,100755.59
2023-04-18T05:45:54.274Z,100766.47
2023-04-18T05:48:24.989Z,100757.56
2023-04-18T05:50:52.450Z,100758.03
2023-04-18T05:53:19.886Z,100764.16
2023-04-18T05:55:48.738Z,100762.66
2023-04-18T05:58:16.405Z,100757.25
2023-04-18T06:00:45.251Z,100771.66
2023-04-18T06:03:12.826Z,100772.81
2023-04-18T06:05:40.962Z,100770.03
2023-04-18T06:08:08.475Z,100771.44
2023-04-18T06:10:38.885Z,100773.16
2023-04-18T06:13:06.816Z,100777.63
2023-04-18T06:15:35.578Z,100769.88
2023-04-18T06:18:04.451Z,100783.91
2023-04-18T06:20:31.921Z,100781.31
2023-04-18T06:22:59.347Z,100787.22
2023-04-18T06:25:26.784Z,100783.63
2023-04-18T06:27:54.324Z,100790.97
2023-04-18T06:30:22.242Z,100782.25
2023-04-18T06:32:49.925Z,100787.81
2023-04-18T06:35:18.916Z,100775.72
2023-04-18T06:37:46.681Z,100795.38
2023-04-18T06:40:14.553Z,100784.63
2023-04-18T06:42:43.201Z,100782.31
2023-04-18T06:45:11.973Z,100788.22
2023-04-18T06:47:40.108Z,100798.06
2023-04-18T06:50:10.262Z,100789.84
2023-04-18T06:52:44.019Z,100785.75
2023-04-18T06:55:12.394Z,100798.03
2023-04-18T06:57:40.648Z,100796.56
2023-04-18T07:00:10.031Z,100790.75
2023-04-18T07:02:39.365Z,100786.78
2023-04-18T07:05:07.868Z,100790.28
2023-04-18T07:07:35.868Z,100790.91
2023-04-18T07:10:06.638Z,100791.22
2023-04-18T07:12:34.674Z,100793.41
2023-04-18T07:15:03.311Z,100799.41
2023-04-18T07:17:30.847Z,100802.75
2023-04-18T07:19:59.183Z,100804.66
2023-04-18T07:22:26.815Z,100796.97
2023-04-18T07:24:54.288Z,100807.22
2023-04-18T07:27:23.103Z,100806.88
2023-04-18T07:29:50.573Z,100802.47
2023-04-18T07:32:18.052Z,100807.09
2023-04-18T07:34:45.751Z,100813.09
2023-04-18T07:37:14.884Z,100815.38
2023-04-18T07:39:42.582Z,100813.13
2023-04-18T07:42:11.159Z,100815.28
2023-04-18T07:44:40.207Z,100818.47
2023-04-18T07:47:09.831Z,100818.09
2023-04-18T07:49:37.782Z,100820.34
2023-04-18T07:52:05.958Z,100815.97
2023-04-18T07:54:33.406Z,100814.84
2023-04-18T07:57:01.003Z,100819.78
2023-04-18T07:59:28.743Z,100825.59
2023-04-18T08:01:57.583Z,100826.72
2023-04-18T08:04:27.632Z,100826.19
2023-04-18T08:06:56.608Z,100822.09
2023-04-18T08:09:24.053Z,100815.38
2023-04-18T08:11:51.488Z,100818.88
2023-04-18T08:14:18.921Z,100821.78
2023-04-18T08:16:46.436Z,100820.38
2023-04-18T08:19:15.705Z,100824.19
2023-04-18T08:21:43.375Z,100825.56
2023-04-18T08:24:10.788Z,100826.06
2023-04-18T08:26:38.264Z,100825.50
2023-04-18T08:29:06.221Z,100832.22
2023-04-18T08:31:33.750Z,100828.06
2023-04-18T08:34:02.539Z,100831.91
2023-04-18T08:36:32.524Z,100834.41
2023-04-18T08:38:59.953Z,100834.09
2023-04-18T08:41:28.826Z,100838.63
2023-04-18T08:43:57.211Z,100827.53
2023-04-18T08:46:24.858Z,100839.63
2023-04-18T08:48:52.486Z,100836.53
2023-04-18T08:51:19.921Z,100840.78
2023-04-18T08:53:48.919Z,100849.81
2023-04-18T08:56:16.384Z,100843.66
2023-04-18T08:58:45.087Z,100845.16
2023-04-18T09:01:13.446Z,100852.28
2023-04-18T09:03:43.081Z,100841.19
2023-04-18T09:06:13.570Z,100834.06
2023-04-18T09:08:42.447Z,100840.75
2023-04-18T09:11:25.848Z,100847.13
2023-04-18T09:13:55.890Z,100836.72
2023-04-18T09:16:24.048Z,100847.22
2023-04-18T09:19:11.518Z,100847.50
2023-04-18T09:21:44.257Z,100841.41
2023-04-18T09:24:20.921Z,100836.84
2023-04-18T09:26:51.199Z,100839.06
2023-04-18T09:29:22.204Z,100848.53
2023-04-18T09:31:57.565Z,100852.72
2023-04-18T09:34:26.250Z,100849.84
2023-04-18T09:37:17.638Z,100845.38
2023-04-18T09:39:45.850Z,100839.63
2023-04-18T09:42:14.756Z,100842.69
2023-04-18T09:45:00.725Z,100833.88
2023-04-18T09:47:28.826Z,100842.75
2023-04-18T09:49:56.550Z,100840.44
2023-04-18T09:52:25.696Z,100835.56
2023-04-18T09:54:59.134Z,100825.13
2023-04-18T09:57:30.191Z,100837.84
2023-04-18T10:00:03.052Z,100837.09
2023-04-18T10:02:39.143Z,100833.38
2023-04-18T10:05:08.966Z,100831.72
2023-04-18T10:07:36.746Z,100836.34
2023-04-18T10:10:04.433Z,100829.91
2023-04-18T10:12:34.108Z,100826.56
2023-04-18T10:15:02.012Z,100829.50
2023-04-18T10:17:29.889Z,100833.03
2023-04-18T10:20:10.020Z,100826.44
2023-04-18T10:22:37.479Z,100818.94
2023-04-18T10:25:06.135Z,100826.63
2023-04-18T10:28:01.100Z,100820.88
2023-04-18T10:30:54.820Z,100814.91
2023-04-18T10:33:41.978Z,100817.63
2023-04-18T10:36:20.503Z,100821.66
2023-04-18T10:38:50.232Z,100808.44
2023-04-18T10:41:21.154Z,100812.28
2023-04-18T10:44:18.022Z,100808.25
2023-04-18T10:47:20.564Z,100812.75
2023-04-18T10:49:57.153Z,100798.94
2023-04-18T10:52:24.708Z,100805.88
2023-04-18T10:54:58.394Z,100793.63
2023-04-18T10:57:37.893Z,100799.41
2023-04-18T11:00:11.104Z,100795.50
2023-04-18T11:02:39.210Z,100793.94
2023-04-18T11:05:08.866Z,100786.94
2023-04-18T11:07:37.437Z,100793.94
2023-04-18T11:10:06.154Z,100781.97
2023-04-18T11:12:36.442Z,100788.19
2023-04-18T11:15:10.541Z,100782.81
2023-04-18T11:17:40.679Z,100783.56
2023-04-18T11:20:11.028Z,100790.88
2023-04-18T11:22:46.237Z,100788.41
2023-04-18T11:25:14.136Z,100793.41
2023-04-18T11:27:43.632Z,100780.44
2023-04-18T11:30:12.102Z,100787.41
2023-04-18T11:32:41.536Z,100789.09
2023-04-18T11:35:10.697Z,100781.59
2023-04-18T11:37:39.131Z,100779.09
2023-04-18T11:40:09.356Z,100779.84
2023-04-18T11:42:38.818Z,100784.63
2023-04-18T11:45:11.082Z,100783.63
2023-04-18T11:47:38.580Z,100780.09
2023-04-18T11:50:09.420Z,100774.94
2023-04-18T11:52:38.067Z,100780.38
2023-04-18T11:55:14.022Z,100781.91
2023-04-18T11:57:42.148Z,100784.38
2023-04-18T12:00:12.314Z,100783.31
2023-04-18T12:02:42.433Z,100785.09
2023-04-18T12:05:15.041Z,100784.38
2023-04-18T12:07:44.997Z,100781.50
2023-04-18T12:10:25.298Z,100783.41
2023-04-18T12:12:54.463Z,100780.44
2023-04-18T12:15:24.024Z,100779.28
2023-04-18T12:17:52.357Z,100781.94
2023-04-18T12:20:24.690Z,100789.72
2023-04-18T12:22:54.846Z,100786.78
2023-04-18T12:25:27.063Z,100784.31
2023-04-18T12:27:57.830Z,100789.34
2023-04-18T12:30:27.658Z,100788.91
2023-04-18T12:32:56.734Z,100788.97
2023-04-18T12:35:26.278Z,100783.38
2023-04-18T12:37:55.457Z,100779.31
2023-04-18T12:40:23.798Z,100784.38
2023-04-18T12:42:51.906Z,100786.78
2023-04-18T12:45:21.632Z,100788.78
2023-04-18T12:47:50.789Z,100796.91
2023-04-18T12:50:19.931Z,100775.34
2023-04-18T12:52:49.645Z,100778.19
2023-04-18T12:55:17.129Z,100780.69
2023-04-18T12:57:45.017Z,100786.34
2023-04-18T13:00:13.963Z,100786.22
2023-04-18T13:02:43.576Z,100781.66
2023-04-18T13:05:13.007Z,100781.81
2023-04-18T13:07:42.471Z,100783.31
2023-04-18T13:10:13.155Z,100783.56
2023-04-18T13:12:41.479Z,100794.22
2023-04-18T13:15:09.905Z,100790.38
2023-04-18T13:17:38.082Z,100786.41
2023-04-18T13:20:06.920Z,100787.66
2023-04-18T13:22:34.723Z,100783.19
2023-04-18T13:25:02.192Z,100781.25
2023-04-18T13:27:31.068Z,100775.03
2023-04-18T13:29:58.552Z,100777.69
2023-04-18T13:32:26.938Z,100774.91
2023-04-18T13:34:56.020Z,100775.31
2023-04-18T13:37:23.709Z,100771.63
2023-04-18T13:39:51.306Z,100766.41
2023-04-18T13:42:19.319Z,100774.53
2023-04-18T13:44:48.477Z,100766.00
2023-04-18T13:47:16.172Z,100771.50
2023-04-18T13:49:43.743Z,100761.19
2023-04-18T13:52:11.227Z,100773.75
2023-04-18T13:54:38.695Z,100758.16
2023-04-18T13:57:11.247Z,100762.19
2023-04-18T13:59:39.993Z,100766.38
2023-04-18T14:02:10.479Z,100762.03
2023-04-18T14:04:38.316Z,100769.38
2023-04-18T14:07:07.979Z,100758.72
2023-04-18T14:09:35.537Z,100760.94
2023-04-18T14:12:03.081Z,100742.38
2023-04-18T14:14:30.717Z,100747.19
2023-04-18T14:16:58.274Z,100750.22
2023-04-18T14:19:27.796Z,100747.59
2023-04-18T14:21:55.389Z,100741.34
2023-04-18T14:24:22.975Z,100742.41
2023-04-18T14:26:50.441Z,100744.06
2023-04-18T14:29:17.949Z,100739.91
2023-04-18T14:31:46.097Z,100727.25
2023-04-18T14:34:13.688Z,100742.84
2023-04-18T14:36:42.488Z,100741.31
2023-04-18T14:39:10.608Z,100739.03
2023-04-18T14:41:38.381Z,100734.31
2023-04-18T14:44:06.410Z,100744.16
2023-04-18T14:46:33.927Z,100728.63
2023-04-18T14:49:01.485Z,100725.94
2023-04-18T14:51:28.977Z,100726.41
2023-04-18T14:53:58.828Z,100725.69
2023-04-18T14:56:26.438Z,100727.50
2023-04-18T14:58:53.870Z,100732.25
2023-04-18T15:01:21.416Z,100723.53
2023-04-18T15:03:51.315Z,100725.22
2023-04-18T15:06:18.903Z,100720.50
2023-04-18T15:08:46.348Z,100724.59
2023-04-18T15:11:15.160Z,100730.44
2023-04-18T15:13:42.673Z,100734.56
2023-04-18T15:16:10.176Z,100724.13
2023-04-18T15:18:37.858Z,100725.53
2023-04-18T15:21:05.384Z,100726.88
2023-04-18T15:23:34.016Z,100720.00
2023-04-18T15:26:01.702Z,100729.63
2023-04-18T15:28:30.521Z,100731.69
2023-04-18T15:30:58.018Z,100724.38
2023-04-18T15:33:25.877Z,100735.25
2023-04-18T15:35:53.650Z,100737.09
2023-04-18T15:38:21.098Z,100732.75
2023-04-18T15:40:48.637Z,100734.31
2023-04-18T15:43:17.130Z,100741.84
2023-04-18T15:45:46.790Z,100732.41
2023-04-18T15:48:14.385Z,100728.41
2023-04-18T15:50:42.033Z,100725.03
2023-04-18T15:53:09.864Z,100721.94
2023-04-18T15:55:37.369Z,100722.38
2023-04-18T15:58:05.007Z,100732.06
2023-04-18T16:00:32.646Z,100724.00
2023-04-18T16:03:01.631Z,100722.34
2023-04-18T16:05:29.277Z,100717.31
2023-04-18T16:07:57.984Z,100726.06
2023-04-18T16:10:25.483Z,100718.09
2023-04-18T16:12:53.510Z,100719.66
2023-04-18T16:15:21.620Z,100715.00
2023-04-18T16:17:49.119Z,100723.31
2023-04-18T16:20:18.992Z,100715.25
2023-04-18T16:22:46.859Z,100721.06
2023-04-18T16:25:14.540Z,100712.31
2023-04-18T16:27:42.469Z,100716.69
2023-04-18T16:30:11.026Z,100722.69
2023-04-18T16:32:38.904Z,100723.75
2023-04-18T16:35:07.723Z,100716.63
2023-04-18T16:37:36.691Z,100716.91
2023-04-18T16:40:05.504Z,100727.31
2023-04-18T16:42:33.192Z,100726.38
2023-04-18T16:45:02.632Z,100725.63
2023-04-18T16:47:30.648Z,100720.25
2023-04-18T16:49:58.166Z,100714.38
2023-04-18T16:52:26.011Z,100714.66
2023-04-18T16:54:54.899Z,100727.66
2023-04-18T16:57:22.487Z,100733.19
2023-04-18T16:59:49.964Z,100735.63
2023-04-18T17:02:17.548Z,100743.91
2023-04-18T17:04:45.240Z,100739.84
2023-04-18T17:07:13.126Z,100737.28
2023-04-18T17:09:40.610Z,100733.97
2023-04-18T17:12:09.444Z,100734.75
2023-04-18T17:14:37.043Z,100739.50
2023-04-18T17:17:04.815Z,100745.22
2023-04-18T17:19:32.285Z,100737.91
2023-04-18T17:22:00.194Z,100731.91
2023-04-18T17:24:27.807Z,100732.56
2023-04-18T17:26:57.558Z,100728.75
2023-04-18T17:29:26.695Z,100730.66
2023-04-18T17:31:54.204Z,100735.56
2023-04-18T17:34:21.802Z,100739.91
2023-04-18T17:36:49.258Z,100743.50
2023-04-18T17:39:19.471Z,100745.19
2023-04-18T17:41:47.167Z,100736.94
2023-04-18T17:44:14.637Z,100735.94
2023-04-18T17:46:43.459Z,100741.75
2023-04-18T17:49:11.271Z,100747.97
2023-04-18T17:51:38.811Z,100752.50
2023-04-18T17:54:07.964Z,100753.16
2023-04-18T17:56:35.622Z,100742.59
2023-04-18T17:59:03.128Z,100757.28
2023-04-18T18:01:31.328Z,100757.38
2023-04-18T18:04:00.438Z,100755.25
2023-04-18T18:06:28.082Z,100762.13
2023-04-18T18:08:55.859Z,100763.66
2023-04-18T18:11:23.658Z,100766.09
2023-04-18T18:13:54.425Z,100763.22
2023-04-18T18:16:22.669Z,100762.84
2023-04-18T18:18:50.787Z,100771.44
2023-04-18T18:21:19.746Z,100783.22
2023-04-18T18:23:47.236Z,100776.13
2023-04-18T18:26:14.733Z,100776.78
2023-04-18T18:28:42.175Z,100777.16
2023-04-18T18:31:09.696Z,100781.66
2023-04-18T18:33:37.173Z,100786.19
2023-04-18T18:36:05.400Z,100790.38
2023-04-18T18:38:34.214Z,100791.69
2023-04-18T18:41:03.751Z,100787.91
2023-04-18T18:43:31.506Z,100796.34
2023-04-18T18:45:59.095Z,100795.56
2023-04-18T18:48:28.136Z,100794.50
2023-04-18T18:50:56.380Z,100793.81
2023-04-18T18:53:23.870Z,100797.66
2023-04-18T18:55:52.714Z,100795.47
2023-04-18T18:58:20.599Z,100796.06
2023-04-18T19:00:48.126Z,100805.44
2023-04-18T19:03:18.323Z,100801.53
2023-04-18T19:05:47.069Z,100808.81
2023-04-18T19:08:14.704Z,100806.13
2023-04-18T19:10:43.074Z,100804.38
2023-04-18T19:13:11.875Z,100813.72
2023-04-18T19:15:39.369Z,100816.22
2023-04-18T19:18:07.028Z,100813.78
2023-04-18T19:20:34.821Z,100809.47
2023-04-18T19:23:02.362Z,100815.16
2023-04-18T19:25:29.824Z,100816.00
2023-04-18T19:27:57.315Z,100810.66
2023-04-18T19:30:26.217Z,100820.63
2023-04-18T19:32:53.722Z,100825.72
2023-04-18T19:35:21.492Z,100830.19
2023-04-18T19:37:48.951Z,100825.97
2023-04-18T19:40:16.585Z,100831.31
2023-04-18T19:42:44.096Z,100829.47
2023-04-18T19:45:14.897Z,100835.97
2023-04-18T19:47:44.942Z,100837.03
2023-04-18T19:50:12.533Z,100831.78
2023-04-18T19:52:40.505Z,100835.94
2023-04-18T19:55:08.882Z,100836.38
2023-04-18T19:57:39.835Z,100840.22
2023-04-18T20:00:08.828Z,100833.75
2023-04-18T20:02:36.440Z,100837.72
2023-04-18T20:05:07.311Z,100839.97
2023-04-18T20:07:35.225Z,100840.97
2023-04-18T20:10:04.211Z,100842.91
2023-04-18T20:12:31.848Z,100831.75
2023-04-18T20:14:59.352Z,100834.88
2023-04-18T20:17:27.514Z,100847.75
2023-04-18T20:19:56.952Z,100838.81
2023-04-18T20:22:26.708Z,100845.09
2023-04-18T20:24:57.014Z,100841.69
2023-04-18T20:27:24.668Z,100843.00
2023-04-18T20:29:52.495Z,100841.97
2023-04-18T20:32:19.929Z,100836.84
2023-04-18T20:34:47.525Z,100847.63
2023-04-18T20:37:19.852Z,100841.78
2023-04-18T20:39:48.720Z,100837.88
2023-04-18T20:42:16.236Z,100837.38
2023-04-18T20:44:44.598Z,100852.97
2023-04-18T20:47:13.892Z,100848.41
2023-04-18T20:49:42.832Z,100849.53
2023-04-18T20:52:10.525Z,100852.53
2023-04-18T20:54:38.031Z,100850.06
2023-04-18T20:57:06.775Z,100862.50
2023-04-18T20:59:34.303Z,100855.34
2023-04-18T21:02:01.931Z,100852.16
2023-04-18T21:04:30.164Z,100853.34
2023-04-18T21:06:57.802Z,100849.75
2023-04-18T21:09:25.270Z,100857.41
2023-04-18T21:11:52.702Z,100860.00
2023-04-18T21:14:21.465Z,100860.31
2023-04-18T21:16:49.249Z,100868.53
2023-04-18T21:19:16.703Z,100864.34
2023-04-18T21:21:44.166Z,100869.69
2023-04-18T21:24:11.665Z,100874.25
2023-04-18T21:26:39.122Z,100874.88
2023-04-18T21:29:06.570Z,100874.34
2023-04-18T21:31:36.220Z,100867.78
2023-04-18T21:34:05.135Z,100869.38
2023-04-18T21:36:33.474Z,100873.06
2023-04-18T21:39:01.704Z,100869.28
2023-04-18T21:41:29.318Z,100875.69
2023-04-18T21:43:56.744Z,100872.81
2023-04-18T21:46:24.675Z,100871.34
2023-04-18T21:48:53.573Z,100867.59
2023-04-18T21:51:21.046Z,100866.78
2023-04-18T21:53:48.474Z,100870.69
2023-04-18T21:56:17.696Z,100865.88
2023-04-18T21:58:45.166Z,100870.59
2023-04-18T22:01:12.912Z,100867.47
2023-04-18T22:03:40.743Z,100868.59
2023-04-18T22:06:09.754Z,100860.66
2023-04-18T22:08:37.348Z,100868.25
2023-04-18T22:11:05.526Z,100867.78
2023-04-18T22:13:33.637Z,100870.13
2023-04-18T22:16:03.564Z,100870.97
2023-04-18T22:18:33.548Z,100863.19
2023-04-18T22:21:01.269Z,100867.56
2023-04-18T22:23:30.752Z,100870.88
2023-04-18T22:25:58.192Z,100870.13
2023-04-18T22:28:27.690Z,100867.03
2023-04-18T22:30:55.237Z,100868.00
2023-04-18T22:33:22.718Z,100858.50
2023-04-18T22:35:50.303Z,100867.56
2023-04-18T22:38:17.768Z,100868.34
2023-04-18T22:40:46.609Z,100860.16
2023-04-18T22:43:14.177Z,100861.63
2023-04-18T22:45:41.598Z,100852.06
2023-04-18T22:48:12.119Z,100851.69
2023-04-18T22:50:42.453Z,100857.84
2023-04-18T22:53:10.407Z,100855.41
2023-04-18T22:55:40.253Z,100855.34
2023-04-18T22:58:09.923Z,100863.13
2023-04-18T23:00:37.662Z,100856.25
2023-04-18T23:03:05.504Z,100853.66
2023-04-18T23:05:34.148Z,100862.31
2023-04-18T23:08:01.609Z,100864.28
2023-04-18T23:10:29.393Z,100860.94
2023-04-18T23:12:57.329Z,100852.28
2023-04-18T23:15:26.884Z,100864.38
2023-04-18T23:17:54.914Z,100849.63
2023-04-18T23:20:23.770Z,100851.69
2023-04-18T23:22:51.695Z,100861.91
2023-04-18T23:25:20.164Z,100864.25
2023-04-18T23:27:47.760Z,100854.56
2023-04-18T23:30:15.361Z,100860.81
2023-04-18T23:32:44.173Z,100858.31
2023-04-18T23:35:12.097Z,100860.53
2023-04-18T23:37:39.516Z,100852.97
2023-04-18T23:40:08.986Z,100856.47
2023-04-18T23:42:36.964Z,100854.84
2023-04-18T23:45:05.739Z,100851.00
2023-04-18T23:47:33.383Z,100854.56
2023-04-18T23:50:02.288Z,100852.03
2023-04-18T23:52:29.828Z,100854.28
2023-04-18T23:55:00.347Z,100851.97
2023-04-18T23:57:27.870Z,100856.50
2023-04-18T23:59:55.355Z,100848.47
